Gaithersburg, MD (20877)

9:44 AM EST on February 09, 2016 (GMT -0500)
Muddy Branch Park | | Change Station
CLOSE
Current Station
Personal Weather Station
Location: Gaithersburg, MD
Elevation: 450 ft
Nearby Weather Stations
Active Advisory: Winter Weather Advisory Active Notice: Public Information Statement

Elev 450 ft 39.12 °N, 77.21 °W | Updated 9 seconds ago

Snow
Snow
33.1 °F
Feels Like 33 °F
N
0.0
Wind Variable Wind from ESE
Gusts 0.0 mph

Today
High -- | Low -- °F
--% Chance of Precip.
Yesterday
High -- | Low -- °F
Precip. -- in
Pressure 29.60 in
Visibility 0.8 miles
Clouds Overcast 600 ft
Windchill 33 °F
Dew Point 32 °F
Humidity 97%
Rainfall 0.33 in
Snow Depth Not available.
7:07 AM 5:38 PM
New Moon, 1% visible
METAR KGAI 091435Z AUTO 00000KT 3/4SM OVC006 01/M02 A2960 RMK AO1 P0001
Pressure 29.60 in
Visibility 0.8 miles
Clouds Overcast 600 ft
Windchill 33 °F
Dew Point 32 °F
Humidity 97%
Rainfall 0.33 in
Snow Depth Not available.
7:07 AM 5:38 PM
New Moon, 1% visible
METAR KGAI 091435Z AUTO 00000KT 3/4SM OVC006 01/M02 A2960 RMK AO1 P0001

10-Day Weather Forecast

Almanac

Astronomy

Feb. 09, 2016 Rise Set
Actual Time
Civil Twilight
Nautical Twilight
Astronomical Twilight
Moon
Length of Visible Light
Length of Day
Tomorrow will be .
, % of the Moon is Illuminated

Today's Extremes

State Highs State Lows

Community

WunderPhotos

Upload Photos

1,891,614 photos uploaded!

WunderBlog® & News

Nearby

Air Quality

  Air Quality AQ Index Pollutant
Not available.

Snow Depth

Station Depth Elevation

Earthquake Activity

City Distance Mag. Time & Date
Minimum magnitude displayed is 2.5.

Coastal Water Temperatures

Place Temperature

Stations

Nearby Weather Stations

Station Location Temp. Windchill Dew Point Humidity Wind Precip. Elev Updated Type
                   

Watches & Warnings

Winter Weather Advisory
Issued: 7:55 AM EST Feb. 9, 2016 – National Weather Service

... Winter Weather Advisory remains in effect until midnight tonight...

* precipitation type... snow.

* Accumulations... snow accumulation of 1 to 3 inches.

* Timing... into this evening before tapering off around midnight.

* Impacts... snow covered roads and travel disruptions possible.

* Winds... north 5 to 10 mph.

* Temperatures... in the lower 30s.

Precautionary/preparedness actions...

A Winter Weather Advisory for snow means that periods of snow
will cause primarily travel difficulties. Be prepared for snow
covered roads and limited visibilities... and use caution while
driving.